Time;durP1;ratioP1;P1;durP2;ratioP2;P2;SDS_P1;SDS_P2;PMS_P1;PMS_P2;Temp;Humidity;BMP_temperature;BMP_pressure;BME280_temperature;BME280_humidity;BME280_pressure;Samples;Min_cycle;Max_cycle;Signal;HPM_P1;HPM_P2
2023/03/02 00:02:04;;;;;;;24.25;11.27;;;-0.30;99.90;;;;;;4998144;28;20038;-36
2023/03/02 00:04:41;;;;;;;23.90;10.90;;;-0.20;99.90;;;;;;4997937;28;20495;-36
2023/03/02 00:07:09;;;;;;;20.45;10.70;;;-0.30;99.90;;;;;;4999443;28;20025;-35
2023/03/02 00:09:35;;;;;;;21.35;10.75;;;-0.30;99.90;;;;;;4996509;28;20053;-35
2023/03/02 00:12:02;;;;;;;24.52;10.90;;;-0.30;99.90;;;;;;4995888;28;20034;-36
2023/03/02 00:14:27;;;;;;;22.20;12.05;;;-0.30;99.90;;;;;;4999360;28;20026;-35
2023/03/02 00:16:53;;;;;;;22.85;12.10;;;-0.20;99.90;;;;;;5001526;28;20021;-35
2023/03/02 00:19:18;;;;;;;20.70;11.13;;;-0.30;99.90;;;;;;4998830;28;20717;-36
2023/03/02 00:21:44;;;;;;;21.90;10.68;;;-0.40;99.90;;;;;;4999018;28;20030;-35
2023/03/02 00:24:10;;;;;;;23.67;10.55;;;-0.40;99.90;;;;;;5002587;28;21076;-36
2023/03/02 00:26:36;;;;;;;23.23;12.48;;;-0.50;99.90;;;;;;4995493;28;20026;-36
2023/03/02 00:29:02;;;;;;;21.75;10.85;;;-0.50;99.90;;;;;;4996616;28;20641;-35
2023/03/02 00:31:28;;;;;;;23.15;10.90;;;-0.50;99.90;;;;;;4998783;28;20070;-36
2023/03/02 00:33:53;;;;;;;23.30;11.60;;;-0.50;99.90;;;;;;5000035;28;20058;-36
2023/03/02 00:36:21;;;;;;;22.02;10.45;;;-0.50;99.90;;;;;;4999731;28;20031;-36
2023/03/02 00:38:47;;;;;;;21.73;12.18;;;-0.40;99.90;;;;;;4999159;28;20893;-36
2023/03/02 00:41:14;;;;;;;27.13;11.27;;;-0.50;99.90;;;;;;4997479;28;20038;-36
2023/03/02 00:43:40;;;;;;;22.98;10.48;;;-0.40;99.90;;;;;;4997006;28;20054;-36
2023/03/02 00:46:14;;;;;;;24.73;12.18;;;-0.40;99.90;;;;;;4996382;28;20040;-36
2023/03/02 00:48:40;;;;;;;19.65;10.40;;;-0.40;99.90;;;;;;4997923;28;20476;-36
2023/03/02 00:51:06;;;;;;;20.00;10.07;;;-0.30;99.90;;;;;;4997690;28;20124;-36
2023/03/02 00:53:33;;;;;;;21.05;10.57;;;-0.20;99.90;;;;;;4995889;28;20038;-36
2023/03/02 00:56:00;;;;;;;24.98;12.52;;;-0.20;99.90;;;;;;4994699;28;20030;-35
2023/03/02 00:58:26;;;;;;;20.50;9.27;;;-0.10;99.90;;;;;;5000252;28;20026;-36
2023/03/02 01:00:52;;;;;;;19.27;10.43;;;-0.20;99.90;;;;;;4996120;28;20026;-36
2023/03/02 01:03:18;;;;;;;22.80;12.15;;;-0.20;99.90;;;;;;4996525;28;20467;-35
2023/03/02 01:05:43;;;;;;;21.73;10.57;;;-0.20;99.90;;;;;;4997843;28;20059;-35
2023/03/02 01:08:09;;;;;;;27.80;11.20;;;-0.10;99.90;;;;;;5003306;28;20089;-36
2023/03/02 01:10:36;;;;;;;17.55;10.40;;;-0.10;99.90;;;;;;4998962;28;20040;-35
2023/03/02 01:13:02;;;;;;;25.80;11.32;;;-0.30;99.90;;;;;;4997900;28;20372;-36
2023/03/02 01:15:28;;;;;;;21.02;11.15;;;-0.30;99.90;;;;;;4997039;28;20034;-36
2023/03/02 01:17:53;;;;;;;21.65;11.07;;;-0.40;99.90;;;;;;4998554;28;20373;-36
2023/03/02 01:20:19;;;;;;;23.63;12.73;;;-0.30;99.90;;;;;;4996778;28;20025;-36
2023/03/02 01:22:45;;;;;;;22.08;10.68;;;-0.40;99.90;;;;;;4995335;28;20040;-36
2023/03/02 01:25:14;;;;;;;19.50;9.88;;;-0.30;99.90;;;;;;4997718;28;20069;-36
2023/03/02 01:27:40;;;;;;;18.15;9.88;;;-0.40;99.90;;;;;;4995819;28;20095;-36
2023/03/02 01:30:06;;;;;;;19.55;10.15;;;-0.50;99.90;;;;;;4996034;28;20038;-36
2023/03/02 01:32:32;;;;;;;23.45;10.43;;;-0.50;99.90;;;;;;4997466;28;20069;-36
2023/03/02 01:34:57;;;;;;;25.10;11.52;;;-0.50;99.90;;;;;;4995566;28;20068;-35
2023/03/02 01:37:23;;;;;;;28.10;12.65;;;-0.50;99.90;;;;;;4998224;28;20041;-35
2023/03/02 01:39:49;;;;;;;25.90;12.23;;;-0.50;99.90;;;;;;4996679;28;20033;-36
2023/03/02 01:42:16;;;;;;;20.92;10.80;;;-0.50;99.90;;;;;;4999488;28;20573;-36
2023/03/02 01:44:47;;;;;;;18.83;10.05;;;-0.60;99.90;;;;;;4998967;28;20530;-36
2023/03/02 01:47:13;;;;;;;19.83;10.57;;;-0.60;99.90;;;;;;4998674;28;20030;-35
2023/03/02 01:49:43;;;;;;;17.55;9.90;;;-0.60;99.90;;;;;;4995575;28;20037;-36
2023/03/02 01:52:11;;;;;;;22.30;10.77;;;-0.50;99.90;;;;;;4996784;28;20060;-36
2023/03/02 01:54:38;;;;;;;29.88;10.82;;;-0.50;99.90;;;;;;4999245;28;20080;-36
2023/03/02 01:57:05;;;;;;;21.95;11.15;;;-0.50;99.90;;;;;;4996597;28;20472;-36
2023/03/02 01:59:34;;;;;;;21.75;10.10;;;-0.60;99.90;;;;;;4997909;28;20471;-36
2023/03/02 02:02:03;;;;;;;23.23;10.20;;;-0.50;99.90;;;;;;4997325;28;20080;-33
2023/03/02 02:04:31;;;;;;;21.63;11.43;;;-0.40;99.90;;;;;;4997937;28;20041;-31
2023/03/02 02:07:02;;;;;;;24.33;11.43;;;-0.50;99.90;;;;;;4996013;28;20042;-33
2023/03/02 02:09:32;;;;;;;20.95;9.88;;;-0.50;99.90;;;;;;4996627;28;20073;-34
2023/03/02 02:11:58;;;;;;;22.60;10.45;;;-0.50;99.90;;;;;;4997134;28;20069;-35
2023/03/02 02:14:24;;;;;;;27.60;11.50;;;-0.60;99.90;;;;;;4998389;28;20228;-34
2023/03/02 02:16:50;;;;;;;24.30;10.63;;;-0.60;99.90;;;;;;4997263;28;20109;-33
2023/03/02 02:20:08;;;;;;;17.67;10.20;;;-0.50;99.90;;;;;;4999141;28;20029;-33
2023/03/02 02:22:47;;;;;;;19.25;10.30;;;-0.40;99.90;;;;;;4997531;28;20073;-36
2023/03/02 02:25:38;;;;;;;22.42;10.88;;;-0.50;99.90;;;;;;4996037;28;20647;-33
2023/03/02 02:28:09;;;;;;;22.67;10.50;;;-0.50;99.90;;;;;;4998083;28;20134;-36
2023/03/02 02:30:37;;;;;;;22.08;11.60;;;-0.40;99.90;;;;;;4997616;28;20458;-34
2023/03/02 02:33:04;;;;;;;20.23;10.85;;;-0.40;99.90;;;;;;4994739;28;20530;-35
2023/03/02 02:35:33;;;;;;;21.45;10.88;;;-0.30;99.90;;;;;;4992669;28;20034;-32
2023/03/02 02:38:05;;;;;;;20.10;9.80;;;-0.40;99.90;;;;;;5000508;28;20025;-34
2023/03/02 02:40:46;;;;;;;20.40;8.98;;;-0.40;99.90;;;;;;4994844;28;20034;-36
2023/03/02 02:43:16;;;;;;;21.65;8.50;;;-0.50;99.90;;;;;;4995288;28;20400;-35
2023/03/02 02:45:42;;;;;;;18.33;8.82;;;-0.50;99.90;;;;;;4999088;28;20408;-33
2023/03/02 02:48:15;;;;;;;17.35;8.57;;;-0.50;99.90;;;;;;4996175;28;20034;-34
2023/03/02 02:50:41;;;;;;;19.30;9.07;;;-0.60;99.90;;;;;;4998056;28;20038;-33
2023/03/02 02:53:16;;;;;;;23.95;9.70;;;-0.60;99.90;;;;;;4996314;28;20049;-35
2023/03/02 02:55:42;;;;;;;22.00;10.02;;;-0.60;99.90;;;;;;4993823;28;20033;-32
2023/03/02 02:58:18;;;;;;;21.17;8.48;;;-0.60;99.90;;;;;;4996232;28;20479;-34
2023/03/02 03:00:44;;;;;;;19.80;9.90;;;-0.50;99.90;;;;;;4997387;28;20554;-32
2023/03/02 03:03:28;;;;;;;18.75;9.80;;;-0.50;99.90;;;;;;4997332;28;20030;-35
2023/03/02 03:05:54;;;;;;;19.60;8.85;;;-0.50;99.90;;;;;;5002447;28;20085;-34
2023/03/02 03:08:42;;;;;;;15.95;8.20;;;-0.50;99.90;;;;;;4998711;28;20040;-36
2023/03/02 03:11:22;;;;;;;15.88;9.27;;;-0.50;99.90;;;;;;4998548;28;20032;-34
2023/03/02 03:13:54;;;;;;;19.00;9.48;;;-0.50;99.90;;;;;;4996610;28;20495;-34
2023/03/02 03:16:20;;;;;;;17.55;10.45;;;-0.50;99.90;;;;;;4997694;28;20033;-33
2023/03/02 03:18:48;;;;;;;16.95;7.88;;;-0.60;99.90;;;;;;4999458;28;20064;-32
2023/03/02 03:21:17;;;;;;;20.45;9.38;;;-0.60;99.90;;;;;;4999588;28;20037;-33
2023/03/02 03:23:43;;;;;;;;;;;-0.70;99.90;;;;;;5001507;28;20034;-33
2023/03/02 03:26:08;;;;;;;21.95;9.13;;;-0.70;99.90;;;;;;4997171;28;19921;-33
2023/03/02 03:28:34;;;;;;;17.30;9.35;;;-0.70;99.90;;;;;;4999170;28;20041;-33
2023/03/02 03:31:00;;;;;;;22.33;11.63;;;-0.60;99.90;;;;;;4999367;28;20053;-33
2023/03/02 03:33:26;;;;;;;20.20;9.30;;;-0.60;99.90;;;;;;4999974;28;20148;-33
2023/03/02 03:35:52;;;;;;;19.60;8.80;;;-0.50;99.90;;;;;;4996370;28;20126;-36
2023/03/02 03:38:18;;;;;;;18.05;8.65;;;-0.50;99.90;;;;;;4997192;28;20045;-33
2023/03/02 03:40:43;;;;;;;20.70;9.98;;;-0.50;99.90;;;;;;4998076;28;20140;-35
2023/03/02 03:43:12;;;;;;;17.17;9.30;;;-0.50;99.90;;;;;;4997368;28;20561;-34
2023/03/02 03:45:38;;;;;;;;;;;-0.50;99.90;;;;;;4997843;28;20398;-32
2023/03/02 03:48:04;;;;;;;19.85;8.82;;;-0.60;99.90;;;;;;5000123;28;19917;-35
2023/03/02 03:50:30;;;;;;;15.93;8.35;;;-0.70;99.90;;;;;;4996807;28;20060;-32
2023/03/02 03:52:55;;;;;;;18.20;9.27;;;-0.70;99.90;;;;;;4996976;28;20120;-34
2023/03/02 03:55:21;;;;;;;15.90;8.63;;;-0.70;99.90;;;;;;4998284;28;20088;-36
2023/03/02 03:57:46;;;;;;;16.92;8.13;;;-0.70;99.90;;;;;;4991754;28;20057;-35
2023/03/02 04:00:13;;;;;;;14.90;8.50;;;-0.70;99.90;;;;;;4977592;28;20029;-33
2023/03/02 04:02:40;;;;;;;22.23;8.40;;;-0.70;99.90;;;;;;4979913;28;20042;-33
2023/03/02 04:05:06;;;;;;;22.25;9.93;;;-0.70;99.90;;;;;;4984210;28;20099;-32
2023/03/02 04:07:36;;;;;;;19.67;9.35;;;-0.70;99.90;;;;;;4986057;28;20038;-32
2023/03/02 04:10:02;;;;;;;13.13;6.85;;;-0.70;99.90;;;;;;4984576;28;20044;-32
2023/03/02 04:12:37;;;;;;;16.23;8.80;;;-0.60;99.90;;;;;;4983566;28;20120;-32
2023/03/02 04:15:05;;;;;;;13.88;8.00;;;-0.60;99.90;;;;;;4986463;28;20043;-33
2023/03/02 04:17:31;;;;;;;16.08;7.20;;;-0.50;99.90;;;;;;4973990;28;20030;-41
2023/03/02 04:19:57;;;;;;;12.23;7.35;;;-0.70;99.90;;;;;;4980741;28;20113;-40
2023/03/02 04:22:23;;;;;;;15.10;8.02;;;-0.70;99.90;;;;;;4982741;28;20030;-41
2023/03/02 04:24:49;;;;;;;18.17;9.93;;;-0.70;99.90;;;;;;4985566;28;20056;-41
2023/03/02 04:27:15;;;;;;;18.63;9.27;;;-0.70;99.90;;;;;;4980173;28;20040;-40
2023/03/02 04:29:42;;;;;;;16.17;7.90;;;-0.80;99.90;;;;;;4981893;28;20030;-41
2023/03/02 04:32:08;;;;;;;18.38;8.90;;;-0.80;99.90;;;;;;4982661;28;20054;-41
2023/03/02 04:34:34;;;;;;;17.60;8.40;;;-0.80;99.90;;;;;;4981636;28;20050;-41
2023/03/02 04:37:00;;;;;;;15.70;9.05;;;-0.80;99.90;;;;;;4983933;28;20030;-40
2023/03/02 04:39:26;;;;;;;15.32;8.50;;;-0.80;99.90;;;;;;4980954;28;20105;-41
2023/03/02 04:41:53;;;;;;;17.38;8.35;;;-0.80;99.90;;;;;;4997896;28;20496;-41
2023/03/02 04:44:19;;;;;;;15.55;7.75;;;-0.70;99.90;;;;;;4984073;28;20476;-42
2023/03/02 04:46:46;;;;;;;15.48;8.38;;;-0.70;99.90;;;;;;4999295;28;20718;-40
2023/03/02 04:49:13;;;;;;;14.90;7.90;;;-0.70;99.90;;;;;;4999801;28;20087;-41
2023/03/02 04:51:41;;;;;;;18.35;8.18;;;-0.80;99.90;;;;;;5001315;28;20030;-40
2023/03/02 04:54:15;;;;;;;14.63;7.53;;;-0.80;99.90;;;;;;5003069;28;20491;-40
2023/03/02 04:56:41;;;;;;;17.92;8.65;;;-0.90;99.90;;;;;;5001603;28;20289;-40
2023/03/02 04:59:06;;;;;;;17.75;8.80;;;-0.90;99.90;;;;;;4996819;28;20679;-40
2023/03/02 05:01:32;;;;;;;16.70;9.65;;;-0.90;99.90;;;;;;4999163;28;20410;-41
2023/03/02 05:03:58;;;;;;;12.73;7.28;;;-0.90;99.90;;;;;;4999385;28;20026;-41
2023/03/02 05:06:24;;;;;;;12.25;7.63;;;-0.90;99.90;;;;;;4995638;28;20527;-40
2023/03/02 05:08:50;;;;;;;16.60;8.65;;;-0.80;99.90;;;;;;5004025;28;20125;-40
2023/03/02 05:11:22;;;;;;;20.35;8.98;;;-0.90;99.90;;;;;;4999540;28;20275;-41
2023/03/02 05:13:53;;;;;;;17.63;8.55;;;-0.90;99.90;;;;;;4999013;28;20034;-40
2023/03/02 05:16:20;;;;;;;19.10;8.35;;;-0.90;99.90;;;;;;4995884;28;20125;-40
2023/03/02 05:18:46;;;;;;;16.27;8.82;;;-0.90;99.90;;;;;;4997642;28;21384;-40
2023/03/02 05:21:13;;;;;;;15.18;8.20;;;-0.90;99.90;;;;;;4997855;28;20033;-41
2023/03/02 05:23:39;;;;;;;15.55;8.38;;;-0.90;99.90;;;;;;4999866;28;20085;-41
2023/03/02 05:26:05;;;;;;;15.05;7.85;;;-0.80;99.90;;;;;;4997167;28;20574;-41
2023/03/02 05:28:31;;;;;;;15.98;6.80;;;-0.80;99.90;;;;;;4998119;28;20061;-40
2023/03/02 05:30:56;;;;;;;16.85;6.88;;;-0.90;99.90;;;;;;4996006;28;20381;-40
2023/03/02 05:33:22;;;;;;;14.75;8.02;;;-0.80;99.90;;;;;;4997188;28;20034;-41
2023/03/02 05:35:47;;;;;;;19.05;8.25;;;-0.90;99.90;;;;;;4994175;28;20038;-41
2023/03/02 05:38:13;;;;;;;15.07;9.05;;;-0.80;99.90;;;;;;5000783;28;20464;-41
2023/03/02 05:40:41;;;;;;;12.20;7.63;;;-0.80;99.90;;;;;;4998812;28;20034;-41
2023/03/02 05:43:07;;;;;;;17.47;8.93;;;-0.70;99.90;;;;;;5003924;28;20037;-41
2023/03/02 05:45:36;;;;;;;16.58;8.25;;;-0.70;99.90;;;;;;4993136;28;20100;-41
2023/03/02 05:48:02;;;;;;;;;;;-0.60;99.90;;;;;;4992942;28;20064;-40
2023/03/02 05:50:27;;;;;;;16.92;7.95;;;-0.60;99.90;;;;;;5000070;28;20000;-41
2023/03/02 05:52:53;;;;;;;15.15;7.05;;;-0.70;99.90;;;;;;4999824;28;20117;-41
2023/03/02 05:55:19;;;;;;;16.20;9.75;;;-0.70;99.90;;;;;;5002266;28;20033;-41
2023/03/02 05:57:48;;;;;;;16.23;9.65;;;-0.80;99.90;;;;;;5003741;28;20026;-40
2023/03/02 06:00:15;;;;;;;18.10;10.10;;;-0.90;99.90;;;;;;4997672;28;20048;-41
2023/03/02 06:02:41;;;;;;;17.50;8.68;;;-1.00;99.90;;;;;;4999143;28;20518;-41
2023/03/02 06:05:12;;;;;;;17.02;9.15;;;-1.10;99.90;;;;;;4996273;28;20034;-41
2023/03/02 06:07:38;;;;;;;11.85;7.90;;;-1.10;99.90;;;;;;5005398;28;20542;-40
2023/03/02 06:10:05;;;;;;;16.05;10.05;;;-1.10;99.90;;;;;;5006209;28;20089;-40
2023/03/02 06:12:31;;;;;;;24.80;9.65;;;-1.10;99.90;;;;;;4999414;28;20034;-41
2023/03/02 06:14:58;;;;;;;17.90;8.93;;;-1.10;99.90;;;;;;4994468;28;20045;-40
2023/03/02 06:17:24;;;;;;;18.75;8.85;;;-1.10;99.90;;;;;;5001277;28;20045;-40
2023/03/02 06:19:49;;;;;;;18.02;9.43;;;-1.10;99.90;;;;;;5001335;28;20044;-41
2023/03/02 06:22:15;;;;;;;21.73;10.65;;;-1.10;99.90;;;;;;4999385;28;20026;-40
2023/03/02 06:24:41;;;;;;;18.73;7.70;;;-1.10;99.90;;;;;;5000337;28;20041;-41
2023/03/02 06:27:06;;;;;;;22.85;9.50;;;-1.00;99.90;;;;;;5000562;28;20640;-40
2023/03/02 06:29:32;;;;;;;21.30;10.23;;;-1.00;99.90;;;;;;5005324;28;20377;-41
2023/03/02 06:31:57;;;;;;;14.27;7.60;;;-1.00;99.90;;;;;;4993571;28;20052;-41
2023/03/02 06:34:23;;;;;;;18.52;8.77;;;-1.00;99.90;;;;;;5002232;28;20018;-41
2023/03/02 06:36:49;;;;;;;18.33;9.38;;;-1.10;99.90;;;;;;4992621;28;20737;-40
2023/03/02 06:39:14;;;;;;;20.98;9.43;;;-1.10;99.90;;;;;;4999028;28;20033;-41
2023/03/02 06:41:44;;;;;;;16.10;9.15;;;-1.10;99.90;;;;;;4995848;28;20540;-41
2023/03/02 06:44:10;;;;;;;20.55;10.52;;;-1.10;99.90;;;;;;5003569;28;20056;-41
2023/03/02 06:46:37;;;;;;;16.20;8.73;;;-1.00;99.90;;;;;;5001305;28;20100;-41
2023/03/02 06:49:03;;;;;;;18.80;10.30;;;-1.00;99.90;;;;;;4995216;28;20038;-40
2023/03/02 06:51:28;;;;;;;18.83;10.40;;;-0.90;99.90;;;;;;5003844;28;20419;-41
2023/03/02 06:53:54;;;;;;;18.88;8.80;;;-0.90;99.90;;;;;;5002687;28;20030;-41
2023/03/02 06:56:20;;;;;;;20.92;9.50;;;-0.90;99.90;;;;;;5003491;28;20030;-40
2023/03/02 06:58:46;;;;;;;21.60;10.45;;;-0.80;99.90;;;;;;5002071;28;20039;-40
2023/03/02 07:01:11;;;;;;;15.82;8.70;;;-0.80;99.90;;;;;;5000155;28;20036;-40
2023/03/02 07:03:37;;;;;;;18.42;9.55;;;-0.80;99.90;;;;;;4998923;28;20484;-40
2023/03/02 07:06:03;;;;;;;20.05;10.38;;;-0.70;99.90;;;;;;5001140;28;20030;-41
2023/03/02 07:08:29;;;;;;;16.92;9.70;;;-0.60;99.90;;;;;;4998928;28;20037;-41
2023/03/02 07:10:54;;;;;;;22.25;11.57;;;-0.60;99.90;;;;;;5000491;28;20121;-40
2023/03/02 07:13:20;;;;;;;19.92;9.80;;;-0.50;99.90;;;;;;5004083;28;20034;-40
2023/03/02 07:15:45;;;;;;;25.40;12.32;;;-0.50;99.90;;;;;;5004757;28;20061;-41
2023/03/02 07:18:11;;;;;;;22.52;11.18;;;-0.40;99.90;;;;;;4999255;28;20037;-41
2023/03/02 07:20:37;;;;;;;25.48;10.02;;;-0.30;99.90;;;;;;5000936;28;20014;-41
2023/03/02 07:23:03;;;;;;;20.17;10.05;;;-0.20;99.90;;;;;;4999086;28;20109;-41
2023/03/02 07:25:29;;;;;;;23.73;11.27;;;-0.20;99.90;;;;;;5002344;28;20430;-40
2023/03/02 07:27:55;;;;;;;21.70;11.18;;;-0.10;99.90;;;;;;5000132;28;20035;-41
2023/03/02 07:30:20;;;;;;;26.05;11.20;;;0.00;99.90;;;;;;5001309;28;20029;-40
2023/03/02 07:32:50;;;;;;;20.63;10.63;;;0.10;99.90;;;;;;5001038;28;20070;-41
2023/03/02 07:35:16;;;;;;;25.15;10.20;;;0.10;99.90;;;;;;5000369;28;20379;-41
2023/03/02 07:37:43;;;;;;;20.98;10.23;;;0.20;99.90;;;;;;5000872;28;20488;-41
2023/03/02 07:40:10;;;;;;;19.75;10.18;;;0.30;99.90;;;;;;5009003;28;20069;-41
2023/03/02 07:42:36;;;;;;;20.10;10.85;;;0.30;99.90;;;;;;4997492;28;20042;-40
2023/03/02 07:45:03;;;;;;;25.33;11.02;;;0.40;99.90;;;;;;5004147;28;20450;-41
2023/03/02 07:47:29;;;;;;;22.58;11.98;;;0.60;99.90;;;;;;5002013;28;20050;-41
2023/03/02 07:49:55;;;;;;;22.70;10.43;;;0.70;99.90;;;;;;5003633;28;20105;-41
2023/03/02 07:52:20;;;;;;;23.80;11.40;;;0.60;99.90;;;;;;4996715;28;20543;-40
2023/03/02 07:54:46;;;;;;;20.85;10.48;;;0.70;99.90;;;;;;5002874;28;20045;-40
2023/03/02 07:57:14;;;;;;;22.67;11.18;;;0.80;99.90;;;;;;4996926;28;20030;-40
2023/03/02 07:59:41;;;;;;;25.75;12.18;;;0.90;99.90;;;;;;5005640;28;20037;-41
2023/03/02 08:02:13;;;;;;;29.55;11.48;;;0.90;99.90;;;;;;4989909;28;20169;-41
2023/03/02 08:04:39;;;;;;;19.83;10.60;;;1.00;99.90;;;;;;4985970;28;20048;-41
2023/03/02 08:07:05;;;;;;;27.85;12.30;;;1.10;99.90;;;;;;4990888;28;20034;-40
2023/03/02 08:09:30;;;;;;;21.90;11.80;;;1.20;99.90;;;;;;5004922;28;20378;-41
2023/03/02 08:11:56;;;;;;;26.80;12.35;;;1.30;99.90;;;;;;5002135;28;20038;-40
2023/03/02 08:14:22;;;;;;;22.33;10.77;;;1.40;99.90;;;;;;5003969;28;20026;-40
2023/03/02 08:16:48;;;;;;;20.88;11.02;;;1.60;99.90;;;;;;5006219;28;20241;-40
2023/03/02 08:19:14;;;;;;;26.65;12.30;;;1.60;99.90;;;;;;5001185;28;20038;-43
2023/03/02 08:21:40;;;;;;;24.73;12.07;;;1.60;99.90;;;;;;5003797;28;20036;-40
2023/03/02 08:24:06;;;;;;;22.60;11.95;;;1.80;99.90;;;;;;4992864;28;20137;-39
2023/03/02 08:26:31;;;;;;;23.85;12.07;;;1.80;99.90;;;;;;5006091;28;20034;-40
2023/03/02 08:28:58;;;;;;;26.50;11.95;;;1.80;99.90;;;;;;5002060;28;20113;-40
2023/03/02 08:31:24;;;;;;;24.30;11.18;;;2.00;99.90;;;;;;5006629;28;20038;-40
2023/03/02 08:33:50;;;;;;;24.20;11.63;;;2.10;99.90;;;;;;4998027;28;21168;-40
2023/03/02 08:36:17;;;;;;;22.15;10.63;;;2.10;99.90;;;;;;5002724;28;20037;-40
2023/03/02 08:38:44;;;;;;;21.13;11.45;;;2.20;99.90;;;;;;4999064;28;20492;-40
2023/03/02 08:41:13;;;;;;;23.65;10.25;;;2.30;99.90;;;;;;4999823;28;20113;-41
2023/03/02 08:43:39;;;;;;;20.95;10.30;;;2.50;99.90;;;;;;5004408;28;20399;-40
2023/03/02 08:46:04;;;;;;;24.20;11.85;;;2.60;99.90;;;;;;5005585;28;20030;-40
2023/03/02 08:48:31;;;;;;;21.63;11.18;;;2.70;99.90;;;;;;4997997;28;20496;-41
2023/03/02 08:51:03;;;;;;;23.20;11.48;;;2.80;99.90;;;;;;5005169;28;20079;-40
2023/03/02 08:53:32;;;;;;;23.73;11.52;;;2.90;99.90;;;;;;5003222;28;20026;-40
2023/03/02 08:55:57;;;;;;;22.08;10.98;;;2.90;99.90;;;;;;5001448;28;20042;-40
2023/03/02 08:58:23;;;;;;;20.85;10.48;;;2.90;99.90;;;;;;4989122;28;20037;-41
2023/03/02 09:00:49;;;;;;;22.17;10.88;;;3.00;99.90;;;;;;4995960;28;20033;-40
2023/03/02 09:03:15;;;;;;;18.95;10.50;;;3.10;99.90;;;;;;5001113;28;20111;-40
2023/03/02 09:05:40;;;;;;;25.08;12.30;;;3.00;99.90;;;;;;5003972;28;20029;-40
2023/03/02 09:08:07;;;;;;;22.08;11.43;;;3.10;99.90;;;;;;5001831;28;20511;-40
2023/03/02 09:10:32;;;;;;;22.35;10.35;;;3.20;99.90;;;;;;5001524;28;20109;-40
2023/03/02 09:12:58;;;;;;;24.50;11.57;;;3.10;99.90;;;;;;4999548;28;20106;-40
2023/03/02 09:15:24;;;;;;;22.00;11.82;;;3.20;99.90;;;;;;4998484;28;20038;-40
2023/03/02 09:17:49;;;;;;;18.73;9.98;;;3.30;99.90;;;;;;5009889;28;20384;-40
2023/03/02 09:20:15;;;;;;;21.48;11.10;;;3.30;99.90;;;;;;4999550;28;20030;-40
2023/03/02 09:22:47;;;;;;;15.70;9.77;;;3.30;99.90;;;;;;4999694;28;20027;-40
2023/03/02 09:25:13;;;;;;;19.23;9.93;;;3.40;99.90;;;;;;5000701;28;20056;-40
2023/03/02 09:27:39;;;;;;;19.52;11.05;;;3.60;99.90;;;;;;5003992;28;20376;-40
2023/03/02 09:30:06;;;;;;;21.35;11.23;;;3.80;99.90;;;;;;4997058;28;20497;-40
2023/03/02 09:32:32;;;;;;;21.25;10.35;;;3.90;99.90;;;;;;5002618;28;20050;-40
2023/03/02 09:34:57;;;;;;;20.58;10.75;;;4.00;99.90;;;;;;4999112;28;20108;-40
2023/03/02 09:37:23;;;;;;;19.30;10.60;;;4.30;99.90;;;;;;5002411;28;20034;-40
2023/03/02 09:39:50;;;;;;;15.23;9.73;;;4.40;99.90;;;;;;4999019;28;20142;-40
2023/03/02 09:42:50;;;;;;;19.73;11.30;;;4.30;99.90;;;;;;5002091;28;20141;-40
2023/03/02 09:45:37;;;;;;;24.52;11.60;;;4.40;99.90;;;;;;5001520;28;20116;-40
2023/03/02 09:48:09;;;;;;;15.23;9.27;;;4.30;99.90;;;;;;5005129;28;20076;-40
2023/03/02 09:50:40;;;;;;;21.67;11.02;;;4.10;99.90;;;;;;4998048;28;20061;-40
2023/03/02 09:53:36;;;;;;;23.02;10.35;;;4.10;99.90;;;;;;5000042;28;20093;-40
2023/03/02 09:56:02;;;;;;;19.52;10.10;;;4.30;99.90;;;;;;5000748;28;20062;-40
2023/03/02 09:58:35;;;;;;;20.77;11.25;;;4.40;99.90;;;;;;4993069;28;20029;-40
2023/03/02 10:01:08;;;;;;;18.92;9.60;;;4.50;99.90;;;;;;4999232;28;20037;-40
2023/03/02 10:04:22;;;;;;;21.23;12.18;;;4.60;99.90;;;;;;4999560;28;20476;-40
2023/03/02 10:06:59;;;;;;;20.33;10.93;;;4.60;99.90;;;;;;4990250;28;20037;-40
2023/03/02 10:09:25;;;;;;;22.35;10.90;;;4.60;99.90;;;;;;4999845;28;20133;-40
2023/03/02 10:12:00;;;;;;;16.13;9.98;;;4.60;99.90;;;;;;5003911;28;20451;-40
2023/03/02 10:14:34;;;;;;;19.85;11.00;;;4.80;99.90;;;;;;4996030;28;20062;-40
2023/03/02 10:17:28;;;;;;;20.55;10.77;;;4.90;99.90;;;;;;5003385;28;20024;-40
2023/03/02 10:20:19;;;;;;;18.70;11.30;;;5.20;99.90;;;;;;5005440;28;20031;-40
2023/03/02 10:22:51;;;;;;;19.40;8.77;;;5.30;99.90;;;;;;5002967;28;20108;-40
2023/03/02 10:25:32;;;;;;;16.80;9.75;;;5.10;99.90;;;;;;4997653;28;20037;-40
2023/03/02 10:28:25;;;;;;;16.92;9.02;;;5.00;99.90;;;;;;5004636;28;20038;-40
2023/03/02 10:31:08;;;;;;;19.77;11.68;;;5.00;99.90;;;;;;5002298;28;20038;-40
2023/03/02 10:33:37;;;;;;;20.00;9.30;;;5.30;99.90;;;;;;5004566;28;20031;-40
2023/03/02 10:36:11;;;;;;;15.90;8.98;;;5.30;99.90;;;;;;4998122;28;20038;-40
2023/03/02 10:38:37;;;;;;;16.60;9.70;;;5.40;99.90;;;;;;5003233;28;20061;-40
2023/03/02 10:41:07;;;;;;;19.30;11.10;;;5.40;99.90;;;;;;5005714;28;20370;-41
2023/03/02 10:43:38;;;;;;;21.55;10.55;;;5.60;99.90;;;;;;5006868;28;20055;-40
2023/03/02 10:46:07;;;;;;;18.98;10.07;;;5.50;99.90;;;;;;5005937;28;20030;-41
2023/03/02 10:48:57;;;;;;;18.15;8.88;;;5.70;99.90;;;;;;5002121;28;20472;-40
2023/03/02 10:51:30;;;;;;;15.77;9.80;;;5.90;99.90;;;;;;5003466;28;20100;-39
2023/03/02 10:54:24;;;;;;;17.98;8.90;;;5.90;99.90;;;;;;5006713;28;20042;-40
2023/03/02 10:56:53;;;;;;;18.17;8.82;;;5.90;99.90;;;;;;4997873;28;20038;-40
2023/03/02 10:59:25;;;;;;;18.95;10.35;;;6.00;99.90;;;;;;5000864;28;20406;-40
2023/03/02 11:02:01;;;;;;;19.98;9.98;;;6.00;99.90;;;;;;4998232;28;20081;-40
2023/03/02 11:04:27;;;;;;;21.85;9.90;;;5.90;99.90;;;;;;5002278;28;20116;-40
2023/03/02 11:06:53;;;;;;;16.65;8.65;;;6.10;99.90;;;;;;5004016;28;20038;-40
2023/03/02 11:09:18;;;;;;;21.45;10.70;;;6.00;99.90;;;;;;5007664;28;20527;-40
2023/03/02 11:11:54;;;;;;;13.13;7.70;;;6.30;99.90;;;;;;5006210;28;20091;-40
2023/03/02 11:14:22;;;;;;;16.58;9.25;;;6.40;99.90;;;;;;4998729;28;20049;-40
2023/03/02 11:16:49;;;;;;;18.45;10.10;;;6.50;99.90;;;;;;5015377;28;20068;-40
2023/03/02 11:19:24;;;;;;;21.25;11.18;;;6.60;99.90;;;;;;5004894;28;20026;-40
2023/03/02 11:22:18;;;;;;;19.83;9.75;;;6.70;99.90;;;;;;4999231;28;20026;-40
2023/03/02 11:24:52;;;;;;;16.08;9.20;;;6.70;99.90;;;;;;5005348;28;20065;-40
2023/03/02 11:27:26;;;;;;;16.60;9.45;;;6.80;99.90;;;;;;5000867;28;20088;-40
2023/03/02 11:29:59;;;;;;;16.38;8.45;;;6.80;99.90;;;;;;5007275;28;20042;-42
2023/03/02 11:32:38;;;;;;;13.65;8.23;;;7.00;99.90;;;;;;4993652;28;20092;-40
2023/03/02 11:35:12;;;;;;;15.50;8.40;;;6.90;99.90;;;;;;5008124;28;20550;-40
2023/03/02 11:37:46;;;;;;;13.45;7.90;;;7.10;99.90;;;;;;5003184;28;20057;-40
2023/03/02 11:40:12;;;;;;;15.32;8.85;;;7.10;99.90;;;;;;5004560;28;20080;-40
2023/03/02 11:42:43;;;;;;;16.67;8.23;;;7.30;99.90;;;;;;5006080;28;20042;-39
2023/03/02 11:45:11;;;;;;;15.13;9.48;;;7.30;99.90;;;;;;5001202;28;20041;-40
2023/03/02 11:47:38;;;;;;;20.20;8.73;;;7.40;99.90;;;;;;5004814;28;20033;-39
2023/03/02 11:50:09;;;;;;;14.57;8.05;;;7.40;99.90;;;;;;5000501;28;20044;-40
2023/03/02 11:52:38;;;;;;;12.00;8.15;;;7.40;99.90;;;;;;5007754;28;20552;-40
2023/03/02 11:55:23;;;;;;;16.60;8.35;;;7.70;99.90;;;;;;5003378;28;20038;-40
2023/03/02 11:57:58;;;;;;;13.25;7.85;;;7.60;99.90;;;;;;5005027;28;20040;-40
2023/03/02 12:00:26;;;;;;;9.20;5.50;;;7.70;99.90;;;;;;5004478;28;20076;-40
2023/03/02 12:03:06;;;;;;;12.65;8.15;;;7.80;99.90;;;;;;4997380;28;20041;-39
2023/03/02 12:05:37;;;;;;;18.23;8.23;;;8.00;99.90;;;;;;5005410;28;20038;-39
2023/03/02 12:08:18;;;;;;;13.40;7.57;;;7.90;99.90;;;;;;5003436;28;20065;-40
2023/03/02 12:11:18;;;;;;;11.52;6.28;;;7.80;99.90;;;;;;5005407;28;20592;-40
2023/03/02 12:14:00;;;;;;;11.68;7.13;;;7.90;99.90;;;;;;5007355;28;20026;-39
2023/03/02 12:16:42;;;;;;;11.00;6.65;;;7.90;99.90;;;;;;4999110;28;20026;-40
2023/03/02 12:19:25;;;;;;;12.10;7.07;;;8.00;99.90;;;;;;5000035;28;20066;-40
2023/03/02 12:22:05;;;;;;;12.15;7.25;;;8.10;99.90;;;;;;4999497;28;20030;-40
2023/03/02 12:24:33;;;;;;;15.73;7.28;;;8.20;99.90;;;;;;5002379;28;20040;-40
2023/03/02 12:27:14;;;;;;;13.40;7.67;;;8.10;99.90;;;;;;5003155;28;20036;-40
2023/03/02 12:29:41;;;;;;;12.38;7.10;;;8.10;99.90;;;;;;5006621;28;20037;-39
2023/03/02 12:32:17;;;;;;;13.50;7.88;;;8.40;99.90;;;;;;4995592;28;20117;-40
2023/03/02 12:34:53;;;;;;;17.40;8.40;;;8.40;99.90;;;;;;5007221;28;20041;-40
2023/03/02 12:37:26;;;;;;;12.32;7.30;;;8.60;99.90;;;;;;5006529;28;20029;-40
2023/03/02 12:40:14;;;;;;;12.90;7.95;;;8.40;99.90;;;;;;4996253;28;20029;-40
2023/03/02 12:42:51;;;;;;;13.40;6.95;;;8.40;99.90;;;;;;5000920;28;20058;-40
2023/03/02 12:45:41;;;;;;;13.38;8.10;;;8.50;99.90;;;;;;5007414;28;20133;-40
2023/03/02 12:48:34;;;;;;;13.80;7.00;;;8.80;99.90;;;;;;4998654;28;20105;-40
2023/03/02 12:51:03;;;;;;;13.65;6.93;;;8.80;99.90;;;;;;5003410;28;20038;-40